createdAt,value
2019-03-22T00:02:16.136Z,10.00
2019-03-22T00:07:29.686Z,12.60
2019-03-22T00:09:57.920Z,11.53
2019-03-22T00:12:28.626Z,14.57
2019-03-22T00:15:05.429Z,16.83
2019-03-22T00:20:15.005Z,14.10
2019-03-22T00:22:55.086Z,9.93
2019-03-22T00:25:25.997Z,8.97
2019-03-22T00:27:59.483Z,7.40
2019-03-22T00:30:29.131Z,14.38
2019-03-22T00:33:01.439Z,12.07
2019-03-22T00:35:30.685Z,10.43
2019-03-22T00:38:02.038Z,10.90
2019-03-22T00:40:36.054Z,14.43
2019-03-22T00:43:08.604Z,13.20
2019-03-22T00:45:38.526Z,14.93
2019-03-22T00:48:08.049Z,11.90
2019-03-22T00:53:28.644Z,13.80
2019-03-22T00:56:02.470Z,12.63
2019-03-22T00:58:30.007Z,12.17
2019-03-22T01:01:02.384Z,11.67
2019-03-22T01:03:31.564Z,11.60
2019-03-22T01:06:01.697Z,17.93
2019-03-22T01:08:46.956Z,13.23
2019-03-22T01:11:19.295Z,12.43
2019-03-22T01:13:50.625Z,16.80
2019-03-22T01:19:05.506Z,14.50
2019-03-22T01:21:36.522Z,12.47
2019-03-22T01:24:09.242Z,11.70
2019-03-22T01:26:41.238Z,17.37
2019-03-22T01:29:13.173Z,17.47
2019-03-22T01:31:43.681Z,17.30
2019-03-22T01:36:57.727Z,14.77
2019-03-22T01:39:29.974Z,14.10
2019-03-22T01:41:57.269Z,17.20
2019-03-22T01:44:29.943Z,16.27
2019-03-22T01:46:58.378Z,15.37
2019-03-22T01:49:27.865Z,11.50
2019-03-22T01:51:58.325Z,13.67
2019-03-22T01:54:27.666Z,13.10
2019-03-22T01:56:59.360Z,16.37
2019-03-22T01:59:31.606Z,13.17
2019-03-22T02:02:00.958Z,13.37
2019-03-22T02:04:30.687Z,14.97
2019-03-22T02:07:02.138Z,13.10
2019-03-22T02:09:32.807Z,10.07
2019-03-22T02:12:02.209Z,12.13
2019-03-22T02:14:31.893Z,12.70
2019-03-22T02:17:01.372Z,10.73
2019-03-22T02:19:32.132Z,11.00
2019-03-22T02:22:03.284Z,11.47
2019-03-22T02:24:34.270Z,16.93
2019-03-22T02:27:05.683Z,14.67
2019-03-22T02:29:37.152Z,12.53
2019-03-22T02:32:08.095Z,10.43
2019-03-22T02:34:41.021Z,11.20
2019-03-22T02:37:11.093Z,16.10
2019-03-22T02:39:42.321Z,13.75
2019-03-22T02:42:15.061Z,12.85
2019-03-22T02:44:47.841Z,14.00
2019-03-22T02:47:18.508Z,12.73
2019-03-22T02:49:53.222Z,15.47
2019-03-22T02:52:23.293Z,13.20
2019-03-22T02:54:56.986Z,17.43
2019-03-22T02:57:25.929Z,10.57
2019-03-22T02:59:56.321Z,15.40
2019-03-22T03:02:27.570Z,9.20
2019-03-22T03:05:00.971Z,12.10
2019-03-22T03:07:32.102Z,12.97
2019-03-22T03:10:02.848Z,10.20
2019-03-22T03:12:32.965Z,12.43
2019-03-22T03:15:03.281Z,11.13
2019-03-22T03:17:35.219Z,14.53
2019-03-22T03:20:06.267Z,9.60
2019-03-22T03:22:36.397Z,15.27
2019-03-22T03:25:11.311Z,14.28
2019-03-22T03:27:41.298Z,14.63
2019-03-22T03:32:56.443Z,14.43
2019-03-22T03:35:27.665Z,14.97
2019-03-22T03:37:57.987Z,12.20
2019-03-22T03:40:28.950Z,14.03
2019-03-22T03:42:59.350Z,15.70
2019-03-22T03:45:41.345Z,11.63
2019-03-22T03:50:55.290Z,13.30
2019-03-22T03:53:26.268Z,13.98
2019-03-22T03:55:56.513Z,15.80
2019-03-22T03:58:27.966Z,15.20
2019-03-22T04:00:58.893Z,14.30
2019-03-22T04:03:30.309Z,15.43
2019-03-22T04:06:01.268Z,15.40
2019-03-22T04:08:34.338Z,14.93
2019-03-22T04:11:07.461Z,13.70
2019-03-22T04:13:37.345Z,15.70
2019-03-22T04:18:48.659Z,15.30
2019-03-22T04:21:18.904Z,18.60
2019-03-22T04:23:49.604Z,19.82
2019-03-22T04:26:20.427Z,22.13
2019-03-22T04:28:49.534Z,18.00
2019-03-22T04:31:21.525Z,16.00
2019-03-22T04:36:31.277Z,14.83
2019-03-22T04:39:09.085Z,17.07
2019-03-22T04:41:41.585Z,12.70
2019-03-22T04:44:14.524Z,18.70
2019-03-22T04:46:42.924Z,15.33
2019-03-22T04:49:13.418Z,14.20
2019-03-22T04:51:44.379Z,14.37
2019-03-22T04:54:16.186Z,15.38
2019-03-22T04:56:46.269Z,13.40
2019-03-22T04:59:19.872Z,14.17
2019-03-22T05:01:53.781Z,12.37
2019-03-22T05:04:25.606Z,18.30
2019-03-22T05:06:56.454Z,14.50
2019-03-22T05:09:26.367Z,16.73
2019-03-22T05:11:56.712Z,16.67
2019-03-22T05:14:33.149Z,17.57
2019-03-22T05:17:07.378Z,21.07
2019-03-22T05:19:42.409Z,10.70
2019-03-22T05:22:14.375Z,16.05
2019-03-22T05:24:49.728Z,15.53
2019-03-22T05:27:14.330Z,12.67
2019-03-22T05:29:47.369Z,12.97
2019-03-22T05:32:19.168Z,12.03
2019-03-22T05:34:52.444Z,13.73
2019-03-22T05:37:23.665Z,15.57
2019-03-22T05:39:55.528Z,11.17
2019-03-22T05:42:25.141Z,15.90
2019-03-22T05:44:57.451Z,15.03
2019-03-22T05:47:33.405Z,15.58
2019-03-22T05:50:06.787Z,11.17
2019-03-22T05:52:39.868Z,12.13
2019-03-22T05:55:12.631Z,12.37
2019-03-22T05:57:49.095Z,11.03
2019-03-22T06:00:18.328Z,12.80
2019-03-22T06:02:49.254Z,12.57
2019-03-22T06:05:18.688Z,13.30
2019-03-22T06:07:49.383Z,14.63
2019-03-22T06:10:21.041Z,13.53
2019-03-22T06:12:50.082Z,10.30
2019-03-22T06:15:20.634Z,10.13
2019-03-22T06:17:52.322Z,10.47
2019-03-22T06:20:23.545Z,11.10
2019-03-22T06:22:56.623Z,13.13
2019-03-22T06:25:25.649Z,11.57
2019-03-22T06:27:55.365Z,9.83
2019-03-22T06:30:30.164Z,14.40
2019-03-22T06:35:44.127Z,11.43
2019-03-22T06:38:13.939Z,12.27
2019-03-22T06:40:43.947Z,11.22
2019-03-22T06:43:13.892Z,11.53
2019-03-22T06:45:43.910Z,10.80
2019-03-22T06:48:15.233Z,11.10
2019-03-22T06:50:47.013Z,11.10
2019-03-22T06:53:21.833Z,11.73
2019-03-22T06:55:52.561Z,9.27
2019-03-22T06:58:24.110Z,12.17
2019-03-22T07:03:32.825Z,13.17
2019-03-22T07:06:06.575Z,11.83
2019-03-22T07:08:36.165Z,13.73
2019-03-22T07:11:05.853Z,11.73
2019-03-22T07:13:39.491Z,9.90
2019-03-22T07:16:10.081Z,12.75
2019-03-22T07:18:42.105Z,13.73
2019-03-22T07:21:11.600Z,12.23
2019-03-22T07:23:41.545Z,10.13
2019-03-22T07:26:10.785Z,12.13
2019-03-22T07:28:40.814Z,11.30
2019-03-22T07:31:10.950Z,13.00
2019-03-22T07:36:22.748Z,11.23
2019-03-22T07:38:54.331Z,11.55
2019-03-22T07:41:27.801Z,12.93
2019-03-22T07:43:59.849Z,11.53
2019-03-22T07:46:31.449Z,13.22
2019-03-22T07:49:03.690Z,13.27
2019-03-22T07:51:35.752Z,12.95
2019-03-22T07:54:06.167Z,16.37
2019-03-22T07:56:37.954Z,12.90
2019-03-22T07:59:16.073Z,12.93
2019-03-22T08:01:46.776Z,14.27
2019-03-22T08:06:57.359Z,13.60
2019-03-22T08:09:32.622Z,12.30
2019-03-22T08:12:06.098Z,12.10
2019-03-22T08:14:34.001Z,14.00
2019-03-22T08:17:06.928Z,15.53
2019-03-22T08:19:37.696Z,9.40
2019-03-22T08:22:08.594Z,11.67
2019-03-22T08:24:39.680Z,15.60
2019-03-22T08:27:10.876Z,11.60
2019-03-22T08:29:43.373Z,9.73
2019-03-22T08:32:13.671Z,11.13
2019-03-22T08:34:42.799Z,9.28
2019-03-22T08:37:13.387Z,14.73
2019-03-22T08:39:43.936Z,8.27
2019-03-22T08:42:13.881Z,13.20
2019-03-22T08:44:44.791Z,11.60
2019-03-22T08:47:16.371Z,11.97
2019-03-22T08:49:48.840Z,10.77
2019-03-22T08:52:18.445Z,9.97
2019-03-22T08:54:49.282Z,10.80
2019-03-22T08:57:24.730Z,18.43
2019-03-22T08:59:54.565Z,10.30
2019-03-22T09:05:11.368Z,12.30
2019-03-22T09:07:43.347Z,11.03
2019-03-22T09:12:56.969Z,13.60
2019-03-22T09:15:40.270Z,12.00
2019-03-22T09:17:59.793Z,13.20
2019-03-22T09:20:29.785Z,12.17
2019-03-22T09:22:59.572Z,13.40
2019-03-22T09:25:31.567Z,15.77
2019-03-22T09:28:01.456Z,9.83
2019-03-22T09:30:30.541Z,13.17
2019-03-22T09:33:00.534Z,14.13
2019-03-22T09:35:33.789Z,15.27
2019-03-22T09:38:12.912Z,13.83
2019-03-22T09:40:36.380Z,13.90
2019-03-22T09:43:04.708Z,12.40
2019-03-22T09:45:38.154Z,12.70
2019-03-22T09:48:10.734Z,14.33
2019-03-22T09:50:43.005Z,16.23
2019-03-22T09:53:12.428Z,10.03
2019-03-22T09:55:47.786Z,16.73
2019-03-22T09:58:19.088Z,12.85
2019-03-22T10:00:49.166Z,14.43
2019-03-22T10:03:21.256Z,17.07
2019-03-22T10:05:52.355Z,17.27
2019-03-22T10:08:21.993Z,19.03
2019-03-22T10:10:55.146Z,16.30
2019-03-22T10:13:24.461Z,15.00
2019-03-22T10:15:58.321Z,15.78
2019-03-22T10:18:25.064Z,13.70
2019-03-22T10:20:57.955Z,13.08
2019-03-22T10:23:27.394Z,15.68
2019-03-22T10:26:01.898Z,13.73
2019-03-22T10:28:34.718Z,14.63
2019-03-22T10:31:03.844Z,36.63
2019-03-22T10:33:34.563Z,21.73
2019-03-22T10:38:43.846Z,12.30
2019-03-22T10:41:18.173Z,13.10
2019-03-22T10:43:46.121Z,14.00
2019-03-22T10:46:19.037Z,13.10
2019-03-22T10:48:50.353Z,16.83
2019-03-22T10:51:21.418Z,15.87
2019-03-22T10:53:51.183Z,14.33
2019-03-22T10:56:21.335Z,15.47
2019-03-22T10:58:51.134Z,13.80
2019-03-22T11:04:01.178Z,13.00
2019-03-22T11:06:31.370Z,13.40
2019-03-22T11:09:06.075Z,14.20
2019-03-22T11:11:35.145Z,13.50
2019-03-22T11:14:08.135Z,16.13
2019-03-22T11:16:40.200Z,16.60
2019-03-22T11:19:11.274Z,14.17
2019-03-22T11:21:41.053Z,16.80
2019-03-22T11:24:11.351Z,14.93
2019-03-22T11:26:41.749Z,13.47
2019-03-22T11:29:14.174Z,16.40
2019-03-22T11:31:44.508Z,15.57
2019-03-22T11:34:13.912Z,16.02
2019-03-22T11:36:45.249Z,14.05
2019-03-22T11:39:16.012Z,13.80
2019-03-22T11:41:45.377Z,17.17
2019-03-22T11:44:15.791Z,17.03
2019-03-22T11:46:45.699Z,19.77
2019-03-22T11:49:15.918Z,17.07
2019-03-22T11:51:47.608Z,15.17
2019-03-22T11:54:21.123Z,16.40
2019-03-22T11:56:53.457Z,20.20
2019-03-22T11:59:25.343Z,14.40
2019-03-22T12:01:58.489Z,16.13
2019-03-22T12:04:27.797Z,18.23
2019-03-22T12:07:05.723Z,15.30
2019-03-22T12:09:36.554Z,12.10
2019-03-22T12:14:47.140Z,16.20
2019-03-22T12:17:18.777Z,14.90
2019-03-22T12:22:30.501Z,14.90
2019-03-22T12:27:42.712Z,16.80
2019-03-22T12:30:14.773Z,17.13
2019-03-22T12:32:44.376Z,18.27
2019-03-22T12:35:14.155Z,20.40
2019-03-22T12:37:45.561Z,19.07
2019-03-22T12:40:15.166Z,15.20
2019-03-22T12:42:46.979Z,16.47
2019-03-22T12:45:22.578Z,17.73
2019-03-22T12:47:55.479Z,14.83
2019-03-22T12:50:22.124Z,18.07
2019-03-22T12:52:55.523Z,18.70
2019-03-22T12:55:24.844Z,17.73
2019-03-22T12:57:55.605Z,21.17
2019-03-22T13:00:27.472Z,15.97
2019-03-22T13:02:58.508Z,17.40
2019-03-22T13:05:29.517Z,16.00
2019-03-22T13:08:00.483Z,20.37
2019-03-22T13:10:31.754Z,16.90
2019-03-22T13:13:00.250Z,19.73
2019-03-22T13:15:30.454Z,16.20
2019-03-22T13:18:02.417Z,16.77
2019-03-22T13:20:33.153Z,19.37
2019-03-22T13:23:01.853Z,16.30
2019-03-22T13:25:31.264Z,19.07
2019-03-22T13:28:01.919Z,19.17
2019-03-22T13:30:35.115Z,19.67
2019-03-22T13:33:09.128Z,17.57
2019-03-22T13:35:40.664Z,20.03
2019-03-22T13:38:13.291Z,18.07
2019-03-22T13:40:42.727Z,18.92
2019-03-22T13:43:13.940Z,19.70
2019-03-22T13:45:42.626Z,16.10
2019-03-22T13:48:16.106Z,17.50
2019-03-22T13:50:45.091Z,20.55
2019-03-22T13:53:14.329Z,17.25
2019-03-22T13:55:47.420Z,18.77
2019-03-22T13:58:16.406Z,18.73
2019-03-22T14:00:46.037Z,20.70
2019-03-22T14:03:14.605Z,15.87
2019-03-22T14:05:46.561Z,19.00
2019-03-22T14:08:18.504Z,18.60
2019-03-22T14:10:48.109Z,16.50
2019-03-22T14:13:20.673Z,18.92
2019-03-22T14:15:52.229Z,17.07
2019-03-22T14:18:25.783Z,22.60
2019-03-22T14:20:55.881Z,16.77
2019-03-22T14:23:25.964Z,17.20
2019-03-22T14:26:01.810Z,16.47
2019-03-22T14:28:34.552Z,15.97
2019-03-22T14:31:05.815Z,19.10
2019-03-22T14:33:39.553Z,21.53
2019-03-22T14:36:11.985Z,15.23
2019-03-22T14:38:44.192Z,18.62
2019-03-22T14:43:55.624Z,15.00
2019-03-22T14:46:29.070Z,18.47
2019-03-22T14:48:59.649Z,16.45
2019-03-22T14:51:28.562Z,16.40
2019-03-22T14:53:59.534Z,15.50
2019-03-22T14:56:31.973Z,24.40
2019-03-22T14:59:06.578Z,16.70
2019-03-22T15:01:36.413Z,17.25
2019-03-22T15:04:06.715Z,16.60
2019-03-22T15:06:38.112Z,17.17
2019-03-22T15:09:10.641Z,18.87
2019-03-22T15:11:42.705Z,19.85
2019-03-22T15:14:28.259Z,19.17
2019-03-22T15:17:09.048Z,15.70
2019-03-22T15:19:52.632Z,13.70
2019-03-22T15:22:38.290Z,17.60
2019-03-22T15:25:33.735Z,13.57
2019-03-22T15:28:21.194Z,16.20
2019-03-22T15:30:58.231Z,15.57
2019-03-22T15:33:46.433Z,17.37
2019-03-22T15:36:21.558Z,16.60
2019-03-22T15:39:15.958Z,20.20
2019-03-22T15:41:46.313Z,15.10
2019-03-22T15:44:16.551Z,14.60
2019-03-22T15:46:45.585Z,19.43
2019-03-22T15:49:13.877Z,21.93
2019-03-22T15:51:46.468Z,25.30
2019-03-22T15:54:16.146Z,33.67
2019-03-22T15:56:46.896Z,24.97
2019-03-22T15:59:15.897Z,17.00
2019-03-22T16:01:46.527Z,15.48
2019-03-22T16:04:18.622Z,15.63
2019-03-22T16:06:50.766Z,24.83
2019-03-22T16:09:23.164Z,18.80
2019-03-22T16:11:57.754Z,19.83
2019-03-22T16:14:32.603Z,19.30
2019-03-22T16:17:05.489Z,18.57
2019-03-22T16:19:36.429Z,18.07
2019-03-22T16:22:06.415Z,24.47
2019-03-22T16:24:35.573Z,25.20
2019-03-22T16:27:07.583Z,21.50
2019-03-22T16:29:37.690Z,25.57
2019-03-22T16:32:07.508Z,23.30
2019-03-22T16:34:38.550Z,28.77
2019-03-22T16:37:08.473Z,25.77
2019-03-22T16:39:40.372Z,26.20
2019-03-22T16:42:08.385Z,31.20
2019-03-22T16:44:46.128Z,19.50
2019-03-22T16:47:22.796Z,20.10
2019-03-22T16:49:53.129Z,21.50
2019-03-22T16:52:22.244Z,21.50
2019-03-22T16:54:54.785Z,24.00
2019-03-22T16:57:27.018Z,25.05
2019-03-22T17:02:39.259Z,23.87
2019-03-22T17:05:09.067Z,31.70
2019-03-22T17:07:41.319Z,26.23
2019-03-22T17:12:52.271Z,20.87
2019-03-22T17:15:20.582Z,27.13
2019-03-22T17:17:50.073Z,26.35
2019-03-22T17:23:06.137Z,29.43
2019-03-22T17:25:38.295Z,23.90
2019-03-22T17:28:08.819Z,31.63
2019-03-22T17:30:38.078Z,29.13
2019-03-22T17:33:08.606Z,25.33
2019-03-22T17:35:41.240Z,24.77
2019-03-22T17:38:11.774Z,25.37
2019-03-22T17:40:44.059Z,23.87
2019-03-22T17:43:12.793Z,24.87
2019-03-22T17:45:41.538Z,23.60
2019-03-22T17:48:10.291Z,23.27
2019-03-22T17:50:41.792Z,23.23
2019-03-22T17:53:10.623Z,23.30
2019-03-22T17:55:42.447Z,25.63
2019-03-22T17:58:11.099Z,23.93
2019-03-22T18:00:40.709Z,27.40
2019-03-22T18:03:11.100Z,24.00
2019-03-22T18:05:39.770Z,25.97
2019-03-22T18:08:10.277Z,29.60
2019-03-22T18:10:40.281Z,27.33
2019-03-22T18:13:12.394Z,32.23
2019-03-22T18:15:41.479Z,23.90
2019-03-22T18:18:10.552Z,23.67
2019-03-22T18:20:40.142Z,22.30
2019-03-22T18:23:10.612Z,24.47
2019-03-22T18:25:39.401Z,29.48
2019-03-22T18:28:10.417Z,26.27
2019-03-22T18:30:39.462Z,25.73
2019-03-22T18:33:07.233Z,26.60
2019-03-22T18:35:43.240Z,24.10
2019-03-22T18:38:08.696Z,26.17
2019-03-22T18:40:40.342Z,27.20
2019-03-22T18:43:09.193Z,26.27
2019-03-22T18:45:38.903Z,25.07
2019-03-22T18:48:08.310Z,30.02
2019-03-22T18:50:37.919Z,26.62
2019-03-22T18:53:07.215Z,25.30
2019-03-22T18:55:37.054Z,25.20
2019-03-22T18:58:07.625Z,28.25
2019-03-22T19:00:37.679Z,30.37
2019-03-22T19:03:07.398Z,29.33
2019-03-22T19:05:36.346Z,21.30
2019-03-22T19:08:05.596Z,27.75
2019-03-22T19:10:35.756Z,20.92
2019-03-22T19:13:04.631Z,20.77
2019-03-22T19:15:33.886Z,19.77
2019-03-22T19:18:03.844Z,19.87
2019-03-22T19:20:34.925Z,28.03
2019-03-22T19:23:03.945Z,24.03
2019-03-22T19:25:34.627Z,29.07
2019-03-22T19:28:03.755Z,31.48
2019-03-22T19:30:33.026Z,26.57
2019-03-22T19:33:05.550Z,23.40
2019-03-22T19:35:33.509Z,29.33
2019-03-22T19:38:04.615Z,22.10
2019-03-22T19:40:35.094Z,22.60
2019-03-22T19:43:05.574Z,25.23
2019-03-22T19:45:35.611Z,29.73
2019-03-22T19:48:05.612Z,32.67
2019-03-22T19:50:34.507Z,31.07
2019-03-22T19:53:04.183Z,25.73
2019-03-22T19:55:33.711Z,29.73
2019-03-22T19:58:02.832Z,26.37
2019-03-22T20:00:31.958Z,21.80
2019-03-22T20:03:02.842Z,25.03
2019-03-22T20:05:33.086Z,31.70
2019-03-22T20:08:02.827Z,23.13
2019-03-22T20:10:33.136Z,29.00
2019-03-22T20:13:01.991Z,22.90
2019-03-22T20:15:31.096Z,23.00
2019-03-22T20:18:02.916Z,23.33
2019-03-22T20:20:36.142Z,23.73
2019-03-22T20:23:07.108Z,23.80
2019-03-22T20:25:40.140Z,24.83
2019-03-22T20:28:11.357Z,22.25
2019-03-22T20:30:43.424Z,20.53
2019-03-22T20:33:13.910Z,20.70
2019-03-22T20:35:46.336Z,21.30
2019-03-22T20:38:16.752Z,21.57
2019-03-22T20:40:47.383Z,19.13
2019-03-22T20:43:25.696Z,21.30
2019-03-22T20:45:50.569Z,26.03
2019-03-22T20:48:21.302Z,22.93
2019-03-22T20:50:53.262Z,20.85
2019-03-22T20:53:22.562Z,20.20
2019-03-22T20:55:53.378Z,25.80
2019-03-22T20:58:26.517Z,22.32
2019-03-22T21:00:58.245Z,26.30
2019-03-22T21:03:30.028Z,21.43
2019-03-22T21:06:00.055Z,19.70
2019-03-22T21:08:32.171Z,21.33
2019-03-22T21:11:04.133Z,17.17
2019-03-22T21:13:34.473Z,18.00
2019-03-22T21:16:05.033Z,19.73
2019-03-22T21:18:38.854Z,20.60
2019-03-22T21:21:08.541Z,18.25
2019-03-22T21:26:23.833Z,15.17
2019-03-22T21:28:54.031Z,17.97
2019-03-22T21:31:28.575Z,20.73
2019-03-22T21:33:58.619Z,22.90
2019-03-22T21:36:28.750Z,18.07
2019-03-22T21:38:59.551Z,21.77
2019-03-22T21:41:33.878Z,19.53
2019-03-22T21:44:09.341Z,16.47
2019-03-22T21:46:40.201Z,17.40
2019-03-22T21:49:13.273Z,19.17
2019-03-22T21:51:44.424Z,19.70
2019-03-22T21:54:14.826Z,22.27
2019-03-22T21:59:27.803Z,25.53
2019-03-22T22:01:58.799Z,20.53
2019-03-22T22:04:28.676Z,16.80
2019-03-22T22:06:59.048Z,22.00
2019-03-22T22:09:31.274Z,19.10
2019-03-22T22:12:02.355Z,19.50
2019-03-22T22:14:40.757Z,16.63
2019-03-22T22:17:04.250Z,17.20
2019-03-22T22:19:38.325Z,23.13
2019-03-22T22:22:12.558Z,20.40
2019-03-22T22:24:40.710Z,20.20
2019-03-22T22:27:17.360Z,23.83
2019-03-22T22:29:52.091Z,26.93
2019-03-22T22:32:31.163Z,27.60
2019-03-22T22:34:54.934Z,32.73
2019-03-22T22:37:24.338Z,25.50
2019-03-22T22:39:57.893Z,24.13
2019-03-22T22:42:28.107Z,23.40
2019-03-22T22:45:00.386Z,20.83
2019-03-22T22:47:30.725Z,23.20
2019-03-22T22:50:00.345Z,22.37
2019-03-22T22:52:31.513Z,21.90
2019-03-22T23:00:23.059Z,22.30
2019-03-22T23:02:54.506Z,19.00
2019-03-22T23:05:25.043Z,27.53
2019-03-22T23:07:56.687Z,21.97
2019-03-22T23:10:24.324Z,22.80
2019-03-22T23:12:55.577Z,22.43
2019-03-22T23:15:25.055Z,21.13
2019-03-22T23:17:55.811Z,20.65
2019-03-22T23:20:30.062Z,19.10
2019-03-22T23:23:03.045Z,22.83
2019-03-22T23:25:35.408Z,24.73
2019-03-22T23:28:05.491Z,21.77
2019-03-22T23:30:37.371Z,30.80
2019-03-22T23:33:11.489Z,19.10
2019-03-22T23:35:42.117Z,21.60
2019-03-22T23:38:11.547Z,23.37
2019-03-22T23:40:43.088Z,20.63
2019-03-22T23:43:15.845Z,19.90
2019-03-22T23:45:45.327Z,19.90
2019-03-22T23:48:16.174Z,25.63
2019-03-22T23:50:51.825Z,19.43
2019-03-22T23:53:21.493Z,22.53
2019-03-22T23:55:54.134Z,16.67
2019-03-22T23:58:24.084Z,25.70
